sensor_id;sensor_type;location;lat;lon;timestamp;pressure;altitude;pressure_sealevel;temperature;humidity
62632;BME280;48703;51.248;-0.546;2023-04-03T00:00:40;102469;;;3.15;85.99
62632;BME280;48703;51.248;-0.546;2023-04-03T00:03:42;102467;;;3.16;85.11
62632;BME280;48703;51.248;-0.546;2023-04-03T00:06:44;102468;;;3.12;86.19
62632;BME280;48703;51.248;-0.546;2023-04-03T00:09:46;102463;;;3.09;85.26
62632;BME280;48703;51.248;-0.546;2023-04-03T00:12:48;102460;;;3.06;86.30
62632;BME280;48703;51.248;-0.546;2023-04-03T00:15:50;102461;;;3.02;85.73
62632;BME280;48703;51.248;-0.546;2023-04-03T00:18:52;102463;;;2.96;86.49
62632;BME280;48703;51.248;-0.546;2023-04-03T00:21:54;102458;;;2.84;87.30
62632;BME280;48703;51.248;-0.546;2023-04-03T00:24:56;102454;;;2.75;86.61
62632;BME280;48703;51.248;-0.546;2023-04-03T00:27:58;102454;;;2.69;87.70
62632;BME280;48703;51.248;-0.546;2023-04-03T00:31:00;102449;;;2.65;86.82
62632;BME280;48703;51.248;-0.546;2023-04-03T00:34:02;102441;;;2.60;87.03
62632;BME280;48703;51.248;-0.546;2023-04-03T00:37:04;102440;;;2.58;86.89
62632;BME280;48703;51.248;-0.546;2023-04-03T00:40:06;102438;;;2.54;86.99
62632;BME280;48703;51.248;-0.546;2023-04-03T00:43:10;102437;;;2.50;87.47
62632;BME280;48703;51.248;-0.546;2023-04-03T00:46:10;102438;;;2.48;87.61
62632;BME280;48703;51.248;-0.546;2023-04-03T00:49:12;102435;;;2.45;87.62
62632;BME280;48703;51.248;-0.546;2023-04-03T00:52:15;102442;;;2.38;87.37
62632;BME280;48703;51.248;-0.546;2023-04-03T00:55:16;102445;;;2.32;87.49
62632;BME280;48703;51.248;-0.546;2023-04-03T00:58:18;102441;;;2.29;87.48
62632;BME280;48703;51.248;-0.546;2023-04-03T01:01:20;102443;;;2.31;87.47
62632;BME280;48703;51.248;-0.546;2023-04-03T01:04:26;102444;;;2.27;87.83
62632;BME280;48703;51.248;-0.546;2023-04-03T01:07:25;102444;;;2.25;88.12
62632;BME280;48703;51.248;-0.546;2023-04-03T01:10:26;102444;;;2.24;87.20
62632;BME280;48703;51.248;-0.546;2023-04-03T01:13:29;102445;;;2.23;87.79
62632;BME280;48703;51.248;-0.546;2023-04-03T01:16:30;102443;;;2.19;87.07
62632;BME280;48703;51.248;-0.546;2023-04-03T01:19:32;102442;;;2.13;87.90
62632;BME280;48703;51.248;-0.546;2023-04-03T01:21:47;102442;;;2.06;87.47
62632;BME280;48703;51.248;-0.546;2023-04-03T01:24:35;102443;;;1.98;87.99
62632;BME280;48703;51.248;-0.546;2023-04-03T01:27:37;102446;;;1.92;87.60
62632;BME280;48703;51.248;-0.546;2023-04-03T01:30:41;102448;;;1.88;88.18
62632;BME280;48703;51.248;-0.546;2023-04-03T01:33:42;102446;;;1.86;88.14
62632;BME280;48703;51.248;-0.546;2023-04-03T01:36:43;102443;;;1.81;88.02
62632;BME280;48703;51.248;-0.546;2023-04-03T01:39:45;102445;;;1.79;88.21
62632;BME280;48703;51.248;-0.546;2023-04-03T01:42:47;102446;;;1.79;87.93
62632;BME280;48703;51.248;-0.546;2023-04-03T01:45:49;102444;;;1.68;87.87
62632;BME280;48703;51.248;-0.546;2023-04-03T01:48:51;102444;;;1.63;88.05
62632;BME280;48703;51.248;-0.546;2023-04-03T01:51:53;102444;;;1.57;87.72
62632;BME280;48703;51.248;-0.546;2023-04-03T01:54:55;102448;;;1.50;88.39
62632;BME280;48703;51.248;-0.546;2023-04-03T01:57:57;102447;;;1.42;87.98
62632;BME280;48703;51.248;-0.546;2023-04-03T02:00:59;102445;;;1.40;88.49
62632;BME280;48703;51.248;-0.546;2023-04-03T02:04:01;102443;;;1.41;89.25
62632;BME280;48703;51.248;-0.546;2023-04-03T02:07:03;102443;;;1.33;88.71
62632;BME280;48703;51.248;-0.546;2023-04-03T02:10:06;102445;;;1.29;89.13
62632;BME280;48703;51.248;-0.546;2023-04-03T02:13:07;102439;;;1.22;88.75
62632;BME280;48703;51.248;-0.546;2023-04-03T02:16:10;102441;;;1.22;88.37
62632;BME280;48703;51.248;-0.546;2023-04-03T02:19:11;102442;;;1.23;89.07
62632;BME280;48703;51.248;-0.546;2023-04-03T02:22:13;102445;;;1.20;89.54
62632;BME280;48703;51.248;-0.546;2023-04-03T02:25:16;102443;;;1.18;88.92
62632;BME280;48703;51.248;-0.546;2023-04-03T02:28:17;102445;;;1.23;88.54
62632;BME280;48703;51.248;-0.546;2023-04-03T02:31:19;102442;;;1.21;88.85
62632;BME280;48703;51.248;-0.546;2023-04-03T02:34:21;102440;;;1.17;88.67
62632;BME280;48703;51.248;-0.546;2023-04-03T02:37:24;102437;;;1.12;88.72
62632;BME280;48703;51.248;-0.546;2023-04-03T02:40:25;102440;;;1.07;89.43
62632;BME280;48703;51.248;-0.546;2023-04-03T02:43:27;102437;;;1.04;89.24
62632;BME280;48703;51.248;-0.546;2023-04-03T02:46:30;102435;;;1.00;89.46
62632;BME280;48703;51.248;-0.546;2023-04-03T02:49:32;102432;;;0.99;89.87
62632;BME280;48703;51.248;-0.546;2023-04-03T02:52:34;102429;;;0.97;88.80
62632;BME280;48703;51.248;-0.546;2023-04-03T02:55:36;102425;;;1.00;90.25
62632;BME280;48703;51.248;-0.546;2023-04-03T02:58:38;102426;;;0.96;89.33
62632;BME280;48703;51.248;-0.546;2023-04-03T03:01:40;102428;;;0.93;89.12
62632;BME280;48703;51.248;-0.546;2023-04-03T03:04:42;102425;;;0.89;90.19
62632;BME280;48703;51.248;-0.546;2023-04-03T03:07:44;102423;;;0.87;89.74
62632;BME280;48703;51.248;-0.546;2023-04-03T03:10:46;102420;;;0.88;89.89
62632;BME280;48703;51.248;-0.546;2023-04-03T03:13:48;102420;;;0.83;89.19
62632;BME280;48703;51.248;-0.546;2023-04-03T03:16:50;102420;;;0.80;89.51
62632;BME280;48703;51.248;-0.546;2023-04-03T03:19:52;102413;;;0.75;89.61
62632;BME280;48703;51.248;-0.546;2023-04-03T03:22:54;102410;;;0.73;89.38
62632;BME280;48703;51.248;-0.546;2023-04-03T03:25:56;102409;;;0.71;89.20
62632;BME280;48703;51.248;-0.546;2023-04-03T03:28:58;102408;;;0.69;89.76
62632;BME280;48703;51.248;-0.546;2023-04-03T03:32:00;102408;;;0.67;90.17
62632;BME280;48703;51.248;-0.546;2023-04-03T03:35:02;102408;;;0.62;89.46
62632;BME280;48703;51.248;-0.546;2023-04-03T03:38:04;102407;;;0.62;89.50
62632;BME280;48703;51.248;-0.546;2023-04-03T03:41:06;102405;;;0.61;89.97
62632;BME280;48703;51.248;-0.546;2023-04-03T03:44:08;102402;;;0.60;89.96
62632;BME280;48703;51.248;-0.546;2023-04-03T03:47:10;102402;;;0.57;90.11
62632;BME280;48703;51.248;-0.546;2023-04-03T03:50:12;102400;;;0.52;89.54
62632;BME280;48703;51.248;-0.546;2023-04-03T03:53:14;102400;;;0.51;89.53
62632;BME280;48703;51.248;-0.546;2023-04-03T03:56:16;102401;;;0.47;89.93
62632;BME280;48703;51.248;-0.546;2023-04-03T03:59:18;102400;;;0.46;89.86
62632;BME280;48703;51.248;-0.546;2023-04-03T04:02:20;102398;;;0.44;90.33
62632;BME280;48703;51.248;-0.546;2023-04-03T04:05:22;102393;;;0.43;89.91
62632;BME280;48703;51.248;-0.546;2023-04-03T04:08:24;102396;;;0.44;89.90
62632;BME280;48703;51.248;-0.546;2023-04-03T04:11:26;102393;;;0.37;90.02
62632;BME280;48703;51.248;-0.546;2023-04-03T04:14:28;102395;;;0.31;90.03
62632;BME280;48703;51.248;-0.546;2023-04-03T04:17:30;102399;;;0.26;90.09
62632;BME280;48703;51.248;-0.546;2023-04-03T04:20:32;102403;;;0.27;90.09
62632;BME280;48703;51.248;-0.546;2023-04-03T04:23:34;102402;;;0.21;90.60
62632;BME280;48703;51.248;-0.546;2023-04-03T04:26:36;102402;;;0.21;90.60
62632;BME280;48703;51.248;-0.546;2023-04-03T04:29:38;102400;;;0.19;90.26
62632;BME280;48703;51.248;-0.546;2023-04-03T04:32:40;102398;;;0.13;90.72
62632;BME280;48703;51.248;-0.546;2023-04-03T04:35:42;102395;;;0.09;90.53
62632;BME280;48703;51.248;-0.546;2023-04-03T04:38:44;102397;;;0.05;90.15
62632;BME280;48703;51.248;-0.546;2023-04-03T04:41:46;102398;;;0.01;91.01
62632;BME280;48703;51.248;-0.546;2023-04-03T04:44:48;102396;;;-0.03;90.89
62632;BME280;48703;51.248;-0.546;2023-04-03T04:47:50;102397;;;-0.03;91.03
62632;BME280;48703;51.248;-0.546;2023-04-03T04:50:52;102398;;;-0.02;90.74
62632;BME280;48703;51.248;-0.546;2023-04-03T04:53:54;102396;;;-0.01;90.67
62632;BME280;48703;51.248;-0.546;2023-04-03T04:56:56;102393;;;-0.02;90.58
62632;BME280;48703;51.248;-0.546;2023-04-03T04:59:58;102394;;;-0.05;90.40
62632;BME280;48703;51.248;-0.546;2023-04-03T05:03:00;102396;;;-0.05;90.26
62632;BME280;48703;51.248;-0.546;2023-04-03T05:06:02;102402;;;-0.08;90.62
62632;BME280;48703;51.248;-0.546;2023-04-03T05:09:04;102399;;;-0.08;90.40
62632;BME280;48703;51.248;-0.546;2023-04-03T05:12:06;102397;;;-0.11;90.94
62632;BME280;48703;51.248;-0.546;2023-04-03T05:15:08;102396;;;-0.11;90.71
62632;BME280;48703;51.248;-0.546;2023-04-03T05:18:10;102399;;;-0.13;90.78
62632;BME280;48703;51.248;-0.546;2023-04-03T05:21:12;102401;;;-0.16;90.83
62632;BME280;48703;51.248;-0.546;2023-04-03T05:24:14;102401;;;-0.15;90.48
62632;BME280;48703;51.248;-0.546;2023-04-03T05:27:16;102401;;;-0.19;90.55
62632;BME280;48703;51.248;-0.546;2023-04-03T05:30:18;102407;;;-0.22;91.22
62632;BME280;48703;51.248;-0.546;2023-04-03T05:33:20;102409;;;-0.20;90.96
62632;BME280;48703;51.248;-0.546;2023-04-03T05:36:22;102411;;;-0.20;90.71
62632;BME280;48703;51.248;-0.546;2023-04-03T05:39:24;102411;;;-0.21;91.15
62632;BME280;48703;51.248;-0.546;2023-04-03T05:42:26;102411;;;-0.18;91.56
62632;BME280;48703;51.248;-0.546;2023-04-03T05:45:28;102411;;;-0.14;91.46
62632;BME280;48703;51.248;-0.546;2023-04-03T05:48:30;102415;;;-0.12;91.85
62632;BME280;48703;51.248;-0.546;2023-04-03T05:51:33;102417;;;-0.13;91.48
62632;BME280;48703;51.248;-0.546;2023-04-03T05:54:34;102419;;;-0.07;92.01
62632;BME280;48703;51.248;-0.546;2023-04-03T05:57:36;102420;;;-0.04;91.76
62632;BME280;48703;51.248;-0.546;2023-04-03T06:00:38;102423;;;-0.04;91.55
62632;BME280;48703;51.248;-0.546;2023-04-03T06:03:40;102420;;;-0.03;91.85
62632;BME280;48703;51.248;-0.546;2023-04-03T06:06:43;102419;;;-0.05;91.57
62632;BME280;48703;51.248;-0.546;2023-04-03T06:09:44;102421;;;-0.02;91.95
62632;BME280;48703;51.248;-0.546;2023-04-03T06:12:46;102422;;;0.02;91.19
62632;BME280;48703;51.248;-0.546;2023-04-03T06:15:48;102425;;;0.02;91.01
62632;BME280;48703;51.248;-0.546;2023-04-03T06:18:50;102428;;;0.01;91.91
62632;BME280;48703;51.248;-0.546;2023-04-03T06:21:52;102431;;;-0.01;91.98
62632;BME280;48703;51.248;-0.546;2023-04-03T06:24:54;102430;;;0.00;92.03
62632;BME280;48703;51.248;-0.546;2023-04-03T06:27:56;102431;;;0.03;92.18
62632;BME280;48703;51.248;-0.546;2023-04-03T06:30:58;102434;;;0.01;92.35
62632;BME280;48703;51.248;-0.546;2023-04-03T06:34:00;102432;;;0.01;92.36
62632;BME280;48703;51.248;-0.546;2023-04-03T06:37:02;102435;;;0.09;91.64
62632;BME280;48703;51.248;-0.546;2023-04-03T06:40:05;102432;;;0.13;92.23
62632;BME280;48703;51.248;-0.546;2023-04-03T06:43:06;102428;;;0.16;92.88
62632;BME280;48703;51.248;-0.546;2023-04-03T06:46:11;102431;;;0.24;92.90
62632;BME280;48703;51.248;-0.546;2023-04-03T06:49:10;102431;;;0.26;92.92
62632;BME280;48703;51.248;-0.546;2023-04-03T06:52:12;102431;;;0.32;93.34
62632;BME280;48703;51.248;-0.546;2023-04-03T06:55:14;102429;;;0.35;93.07
62632;BME280;48703;51.248;-0.546;2023-04-03T06:58:16;102427;;;0.41;94.31
62632;BME280;48703;51.248;-0.546;2023-04-03T07:01:18;102426;;;0.48;94.20
62632;BME280;48703;51.248;-0.546;2023-04-03T07:04:20;102425;;;0.52;94.70
62632;BME280;48703;51.248;-0.546;2023-04-03T07:07:22;102424;;;0.56;95.04
62632;BME280;48703;51.248;-0.546;2023-04-03T07:10:24;102424;;;0.63;95.31
62632;BME280;48703;51.248;-0.546;2023-04-03T07:13:26;102422;;;0.70;95.00
62632;BME280;48703;51.248;-0.546;2023-04-03T07:16:28;102425;;;0.78;95.32
62632;BME280;48703;51.248;-0.546;2023-04-03T07:19:31;102425;;;0.84;95.53
62632;BME280;48703;51.248;-0.546;2023-04-03T07:22:32;102424;;;0.90;95.46
62632;BME280;48703;51.248;-0.546;2023-04-03T07:25:34;102423;;;0.96;94.94
62632;BME280;48703;51.248;-0.546;2023-04-03T07:28:36;102423;;;1.04;94.86
62632;BME280;48703;51.248;-0.546;2023-04-03T07:31:39;102429;;;1.11;95.27
62632;BME280;48703;51.248;-0.546;2023-04-03T07:34:41;102427;;;1.17;94.25
62632;BME280;48703;51.248;-0.546;2023-04-03T07:37:43;102431;;;1.26;95.15
62632;BME280;48703;51.248;-0.546;2023-04-03T07:40:45;102431;;;1.35;95.14
62632;BME280;48703;51.248;-0.546;2023-04-03T07:43:47;102433;;;1.41;95.21
62632;BME280;48703;51.248;-0.546;2023-04-03T07:46:49;102436;;;1.48;94.94
62632;BME280;48703;51.248;-0.546;2023-04-03T07:49:51;102435;;;1.54;94.05
62632;BME280;48703;51.248;-0.546;2023-04-03T07:52:53;102438;;;1.64;94.31
62632;BME280;48703;51.248;-0.546;2023-04-03T07:55:56;102433;;;1.77;94.28
62632;BME280;48703;51.248;-0.546;2023-04-03T07:58:57;102437;;;1.88;93.73
62632;BME280;48703;51.248;-0.546;2023-04-03T08:01:59;102439;;;2.00;93.29
62632;BME280;48703;51.248;-0.546;2023-04-03T08:05:01;102443;;;2.13;93.73
62632;BME280;48703;51.248;-0.546;2023-04-03T08:08:03;102444;;;2.26;94.44
62632;BME280;48703;51.248;-0.546;2023-04-03T08:11:05;102445;;;2.37;93.69
62632;BME280;48703;51.248;-0.546;2023-04-03T08:14:07;102444;;;2.49;94.57
62632;BME280;48703;51.248;-0.546;2023-04-03T08:17:09;102442;;;2.60;94.07
62632;BME280;48703;51.248;-0.546;2023-04-03T08:20:11;102439;;;2.70;93.30
62632;BME280;48703;51.248;-0.546;2023-04-03T08:23:13;102440;;;2.83;93.42
62632;BME280;48703;51.248;-0.546;2023-04-03T08:26:15;102438;;;2.94;93.23
62632;BME280;48703;51.248;-0.546;2023-04-03T08:29:17;102437;;;3.02;92.12
62632;BME280;48703;51.248;-0.546;2023-04-03T08:32:19;102438;;;3.12;91.57
62632;BME280;48703;51.248;-0.546;2023-04-03T08:35:21;102438;;;3.22;92.22
62632;BME280;48703;51.248;-0.546;2023-04-03T08:38:23;102434;;;3.33;92.12
62632;BME280;48703;51.248;-0.546;2023-04-03T08:41:27;102434;;;3.46;92.47
62632;BME280;48703;51.248;-0.546;2023-04-03T08:44:30;102432;;;3.54;91.84
62632;BME280;48703;51.248;-0.546;2023-04-03T08:47:31;102426;;;3.63;91.87
62632;BME280;48703;51.248;-0.546;2023-04-03T08:50:31;102427;;;3.73;91.19
62632;BME280;48703;51.248;-0.546;2023-04-03T08:53:33;102427;;;3.88;91.81
62632;BME280;48703;51.248;-0.546;2023-04-03T08:56:35;102427;;;3.97;90.92
62632;BME280;48703;51.248;-0.546;2023-04-03T08:59:37;102426;;;4.03;90.45
62632;BME280;48703;51.248;-0.546;2023-04-03T09:02:41;102427;;;4.10;90.29
62632;BME280;48703;51.248;-0.546;2023-04-03T09:05:42;102425;;;4.16;90.49
62632;BME280;48703;51.248;-0.546;2023-04-03T09:08:44;102420;;;4.25;91.11
62632;BME280;48703;51.248;-0.546;2023-04-03T09:11:47;102423;;;4.31;90.68
62632;BME280;48703;51.248;-0.546;2023-04-03T09:14:49;102422;;;4.42;90.81
62632;BME280;48703;51.248;-0.546;2023-04-03T09:17:53;102422;;;4.59;89.75
62632;BME280;48703;51.248;-0.546;2023-04-03T09:20:54;102419;;;4.70;89.64
62632;BME280;48703;51.248;-0.546;2023-04-03T09:23:53;102416;;;4.83;90.42
62632;BME280;48703;51.248;-0.546;2023-04-03T09:26:56;102412;;;4.96;88.76
62632;BME280;48703;51.248;-0.546;2023-04-03T09:29:57;102416;;;5.10;88.50
62632;BME280;48703;51.248;-0.546;2023-04-03T09:32:59;102412;;;5.11;87.70
62632;BME280;48703;51.248;-0.546;2023-04-03T09:36:01;102411;;;5.15;87.24
62632;BME280;48703;51.248;-0.546;2023-04-03T09:39:04;102412;;;5.24;87.59
62632;BME280;48703;51.248;-0.546;2023-04-03T09:42:11;102412;;;5.37;86.94
62632;BME280;48703;51.248;-0.546;2023-04-03T09:45:18;102411;;;5.50;86.50
62632;BME280;48703;51.248;-0.546;2023-04-03T09:48:14;102407;;;5.61;86.03
62632;BME280;48703;51.248;-0.546;2023-04-03T09:51:13;102404;;;5.71;85.76
62632;BME280;48703;51.248;-0.546;2023-04-03T09:54:45;102405;;;5.85;85.30
62632;BME280;48703;51.248;-0.546;2023-04-03T09:57:15;102403;;;5.99;83.45
62632;BME280;48703;51.248;-0.546;2023-04-03T10:00:19;102405;;;6.11;85.05
62632;BME280;48703;51.248;-0.546;2023-04-03T10:03:23;102402;;;6.22;84.71
62632;BME280;48703;51.248;-0.546;2023-04-03T10:06:22;102404;;;6.33;84.13
62632;BME280;48703;51.248;-0.546;2023-04-03T10:09:24;102405;;;6.34;82.82
62632;BME280;48703;51.248;-0.546;2023-04-03T10:12:25;102406;;;6.36;83.30
62632;BME280;48703;51.248;-0.546;2023-04-03T10:15:27;102407;;;6.45;83.59
62632;BME280;48703;51.248;-0.546;2023-04-03T10:18:31;102407;;;6.50;82.78
62632;BME280;48703;51.248;-0.546;2023-04-03T10:21:33;102410;;;6.54;82.42
62632;BME280;48703;51.248;-0.546;2023-04-03T10:24:35;102412;;;6.59;82.54
62632;BME280;48703;51.248;-0.546;2023-04-03T10:27:39;102411;;;6.68;81.28
62632;BME280;48703;51.248;-0.546;2023-04-03T10:30:41;102404;;;6.73;81.36
62632;BME280;48703;51.248;-0.546;2023-04-03T10:33:42;102401;;;6.80;80.38
62632;BME280;48703;51.248;-0.546;2023-04-03T10:36:42;102400;;;6.93;81.09
62632;BME280;48703;51.248;-0.546;2023-04-03T10:39:44;102401;;;7.02;79.35
62632;BME280;48703;51.248;-0.546;2023-04-03T10:42:46;102401;;;7.15;78.68
62632;BME280;48703;51.248;-0.546;2023-04-03T10:45:57;102398;;;7.32;77.30
62632;BME280;48703;51.248;-0.546;2023-04-03T10:48:53;102394;;;7.51;76.14
62632;BME280;48703;51.248;-0.546;2023-04-03T10:51:54;102390;;;7.70;76.26
62632;BME280;48703;51.248;-0.546;2023-04-03T10:54:57;102385;;;7.85;75.52
62632;BME280;48703;51.248;-0.546;2023-04-03T10:57:56;102386;;;7.95;72.69
62632;BME280;48703;51.248;-0.546;2023-04-03T11:00:59;102377;;;8.07;74.19
62632;BME280;48703;51.248;-0.546;2023-04-03T11:04:00;102371;;;8.18;72.84
62632;BME280;48703;51.248;-0.546;2023-04-03T11:07:02;102371;;;8.25;71.27
62632;BME280;48703;51.248;-0.546;2023-04-03T11:10:05;102373;;;8.32;71.73
62632;BME280;48703;51.248;-0.546;2023-04-03T11:13:07;102368;;;8.41;69.80
62632;BME280;48703;51.248;-0.546;2023-04-03T11:16:08;102366;;;8.54;70.72
62632;BME280;48703;51.248;-0.546;2023-04-03T11:19:11;102369;;;8.71;70.72
62632;BME280;48703;51.248;-0.546;2023-04-03T11:22:14;102369;;;8.89;68.79
62632;BME280;48703;51.248;-0.546;2023-04-03T11:25:15;102372;;;9.06;70.44
62632;BME280;48703;51.248;-0.546;2023-04-03T11:28:15;102374;;;9.14;70.08
62632;BME280;48703;51.248;-0.546;2023-04-03T11:31:37;102374;;;9.21;69.65
62632;BME280;48703;51.248;-0.546;2023-04-03T11:34:23;102369;;;9.36;70.69
62632;BME280;48703;51.248;-0.546;2023-04-03T11:37:23;102361;;;9.54;69.35
62632;BME280;48703;51.248;-0.546;2023-04-03T11:40:25;102357;;;9.64;68.12
62632;BME280;48703;51.248;-0.546;2023-04-03T11:43:26;102357;;;9.70;68.20
62632;BME280;48703;51.248;-0.546;2023-04-03T11:47:00;102357;;;9.64;67.29
62632;BME280;48703;51.248;-0.546;2023-04-03T11:50:02;102351;;;9.69;67.75
62632;BME280;48703;51.248;-0.546;2023-04-03T11:52:55;102342;;;9.80;66.87
62632;BME280;48703;51.248;-0.546;2023-04-03T11:55:42;102338;;;9.89;63.60
62632;BME280;48703;51.248;-0.546;2023-04-03T11:58:35;102335;;;10.02;64.86
62632;BME280;48703;51.248;-0.546;2023-04-03T12:01:42;102334;;;10.13;66.63
62632;BME280;48703;51.248;-0.546;2023-04-03T12:04:39;102335;;;10.18;65.33
62632;BME280;48703;51.248;-0.546;2023-04-03T12:07:41;102333;;;10.18;66.57
62632;BME280;48703;51.248;-0.546;2023-04-03T12:10:47;102328;;;10.11;65.23
62632;BME280;48703;51.248;-0.546;2023-04-03T12:14:01;102320;;;10.06;65.26
62632;BME280;48703;51.248;-0.546;2023-04-03T12:16:48;102313;;;9.97;65.31
62632;BME280;48703;51.248;-0.546;2023-04-03T12:19:50;102313;;;9.97;63.93
62632;BME280;48703;51.248;-0.546;2023-04-03T12:23:07;102313;;;9.95;63.31
62632;BME280;48703;51.248;-0.546;2023-04-03T12:25:59;102308;;;9.96;64.74
62632;BME280;48703;51.248;-0.546;2023-04-03T12:28:55;102308;;;9.98;65.58
62632;BME280;48703;51.248;-0.546;2023-04-03T12:32:01;102306;;;9.97;64.43
62632;BME280;48703;51.248;-0.546;2023-04-03T12:35:05;102305;;;10.01;64.73
62632;BME280;48703;51.248;-0.546;2023-04-03T12:38:23;102304;;;9.98;63.88
62632;BME280;48703;51.248;-0.546;2023-04-03T12:41:10;102301;;;9.96;64.05
62632;BME280;48703;51.248;-0.546;2023-04-03T12:44:13;102299;;;10.01;65.21
62632;BME280;48703;51.248;-0.546;2023-04-03T12:47:16;102292;;;10.05;64.50
62632;BME280;48703;51.248;-0.546;2023-04-03T12:50:16;102296;;;10.12;63.78
62632;BME280;48703;51.248;-0.546;2023-04-03T12:53:12;102293;;;10.14;64.47
62632;BME280;48703;51.248;-0.546;2023-04-03T12:56:22;102285;;;10.19;62.97
62632;BME280;48703;51.248;-0.546;2023-04-03T12:59:16;102283;;;10.37;65.13
62632;BME280;48703;51.248;-0.546;2023-04-03T13:02:20;102283;;;10.52;64.82
62632;BME280;48703;51.248;-0.546;2023-04-03T13:05:20;102284;;;10.59;63.09
62632;BME280;48703;51.248;-0.546;2023-04-03T13:08:22;102274;;;10.64;63.90
62632;BME280;48703;51.248;-0.546;2023-04-03T13:11:24;102272;;;10.67;63.42
62632;BME280;48703;51.248;-0.546;2023-04-03T13:14:26;102267;;;10.73;63.21
62632;BME280;48703;51.248;-0.546;2023-04-03T13:17:28;102260;;;10.85;61.72
62632;BME280;48703;51.248;-0.546;2023-04-03T13:20:30;102254;;;10.94;61.50
62632;BME280;48703;51.248;-0.546;2023-04-03T13:23:34;102253;;;10.97;61.80
62632;BME280;48703;51.248;-0.546;2023-04-03T13:26:34;102249;;;11.04;61.66
62632;BME280;48703;51.248;-0.546;2023-04-03T13:29:36;102252;;;11.11;60.89
62632;BME280;48703;51.248;-0.546;2023-04-03T13:32:38;102253;;;11.15;59.99
62632;BME280;48703;51.248;-0.546;2023-04-03T13:35:40;102247;;;11.15;61.61
62632;BME280;48703;51.248;-0.546;2023-04-03T13:38:42;102241;;;11.11;59.99
62632;BME280;48703;51.248;-0.546;2023-04-03T13:41:48;102242;;;11.11;61.41
62632;BME280;48703;51.248;-0.546;2023-04-03T13:44:46;102236;;;11.14;59.73
62632;BME280;48703;51.248;-0.546;2023-04-03T13:47:48;102232;;;11.16;60.23
62632;BME280;48703;51.248;-0.546;2023-04-03T13:51:03;102225;;;11.22;60.88
62632;BME280;48703;51.248;-0.546;2023-04-03T13:53:53;102223;;;11.30;59.45
62632;BME280;48703;51.248;-0.546;2023-04-03T13:56:54;102218;;;11.36;59.51
62632;BME280;48703;51.248;-0.546;2023-04-03T13:59:56;102218;;;11.42;60.00
62632;BME280;48703;51.248;-0.546;2023-04-03T14:02:58;102218;;;11.48;59.13
62632;BME280;48703;51.248;-0.546;2023-04-03T14:06:00;102219;;;11.54;58.15
62632;BME280;48703;51.248;-0.546;2023-04-03T14:09:02;102219;;;11.54;56.57
62632;BME280;48703;51.248;-0.546;2023-04-03T14:12:06;102221;;;11.56;57.56
62632;BME280;48703;51.248;-0.546;2023-04-03T14:15:10;102217;;;11.58;56.87
62632;BME280;48703;51.248;-0.546;2023-04-03T14:18:10;102216;;;11.66;57.75
62632;BME280;48703;51.248;-0.546;2023-04-03T14:21:11;102208;;;11.81;58.26
62632;BME280;48703;51.248;-0.546;2023-04-03T14:24:12;102206;;;11.94;58.31
62632;BME280;48703;51.248;-0.546;2023-04-03T14:27:15;102202;;;12.02;58.36
62632;BME280;48703;51.248;-0.546;2023-04-03T14:30:17;102202;;;12.08;56.30
62632;BME280;48703;51.248;-0.546;2023-04-03T14:33:19;102201;;;12.09;56.07
62632;BME280;48703;51.248;-0.546;2023-04-03T14:36:21;102199;;;12.14;56.20
62632;BME280;48703;51.248;-0.546;2023-04-03T14:39:22;102193;;;12.17;55.20
62632;BME280;48703;51.248;-0.546;2023-04-03T14:42:25;102191;;;12.17;54.37
62632;BME280;48703;51.248;-0.546;2023-04-03T14:45:26;102187;;;12.25;56.61
62632;BME280;48703;51.248;-0.546;2023-04-03T14:48:28;102184;;;12.33;55.34
62632;BME280;48703;51.248;-0.546;2023-04-03T14:51:30;102176;;;12.34;54.49
62632;BME280;48703;51.248;-0.546;2023-04-03T14:54:32;102176;;;12.30;53.89
62632;BME280;48703;51.248;-0.546;2023-04-03T14:57:34;102169;;;12.35;54.69
62632;BME280;48703;51.248;-0.546;2023-04-03T15:00:36;102164;;;12.40;54.12
62632;BME280;48703;51.248;-0.546;2023-04-03T15:03:38;102162;;;12.44;54.14
62632;BME280;48703;51.248;-0.546;2023-04-03T15:06:40;102158;;;12.54;55.24
62632;BME280;48703;51.248;-0.546;2023-04-03T15:09:42;102157;;;12.59;54.17
62632;BME280;48703;51.248;-0.546;2023-04-03T15:12:44;102154;;;12.62;51.82
62632;BME280;48703;51.248;-0.546;2023-04-03T15:15:46;102148;;;12.62;53.31
62632;BME280;48703;51.248;-0.546;2023-04-03T15:18:48;102149;;;12.65;53.19
62632;BME280;48703;51.248;-0.546;2023-04-03T15:21:50;102144;;;12.67;52.92
62632;BME280;48703;51.248;-0.546;2023-04-03T15:24:52;102144;;;12.72;52.53
62632;BME280;48703;51.248;-0.546;2023-04-03T15:27:54;102142;;;12.80;51.70
62632;BME280;48703;51.248;-0.546;2023-04-03T15:30:56;102144;;;12.87;51.57
62632;BME280;48703;51.248;-0.546;2023-04-03T15:33:58;102142;;;12.92;52.13
62632;BME280;48703;51.248;-0.546;2023-04-03T15:37:00;102142;;;12.97;52.54
62632;BME280;48703;51.248;-0.546;2023-04-03T15:40:02;102142;;;13.00;51.60
62632;BME280;48703;51.248;-0.546;2023-04-03T15:43:04;102139;;;13.03;53.72
62632;BME280;48703;51.248;-0.546;2023-04-03T15:46:06;102138;;;13.08;53.33
62632;BME280;48703;51.248;-0.546;2023-04-03T15:49:08;102136;;;13.14;50.63
62632;BME280;48703;51.248;-0.546;2023-04-03T15:52:10;102137;;;13.08;50.83
62632;BME280;48703;51.248;-0.546;2023-04-03T15:55:12;102133;;;13.09;51.20
62632;BME280;48703;51.248;-0.546;2023-04-03T15:58:14;102128;;;13.12;50.70
62632;BME280;48703;51.248;-0.546;2023-04-03T16:01:16;102141;;;13.15;50.69
62632;BME280;48703;51.248;-0.546;2023-04-03T16:04:18;102145;;;13.08;49.42
62632;BME280;48703;51.248;-0.546;2023-04-03T16:07:20;102146;;;13.08;50.58
62632;BME280;48703;51.248;-0.546;2023-04-03T16:10:22;102144;;;13.15;50.38
62632;BME280;48703;51.248;-0.546;2023-04-03T16:13:24;102146;;;13.20;51.09
62632;BME280;48703;51.248;-0.546;2023-04-03T16:16:26;102148;;;13.21;49.45
62632;BME280;48703;51.248;-0.546;2023-04-03T16:19:28;102147;;;13.12;47.92
62632;BME280;48703;51.248;-0.546;2023-04-03T16:22:30;102148;;;13.02;49.08